Sanibel, FL

4:34 PM EDT on September 01, 2015 (GMT -0400)
IWA on Sanibel Island | | Change Station
CLOSE
Current Station
Personal Weather Station
Location: Sanibel, FL
Elevation: 7 ft
Nearby Weather Stations

Elev 7 ft 26.44 °N, 82.11 °W | Updated 2 minutes ago

Clear
Clear
87.1 °F
Feels Like 101 °F
N
5.0
Wind Variable Wind from SSW
Gusts 5.0 mph

Today
High -- | Low -- °F
--% Chance of Precip.
Yesterday
High -- | Low -- °F
Precip. -- in
7:08 AM 7:48 PM
Waning Gibbous, 86% visible
Pressure 30.03 in
Visibility 10.0 miles
Clouds Few 3500 ft
Heat Index 101 °F
Dew Point 79 °F
Humidity 76%
Rainfall 0.00 in
Snow Depth Not available.
UV 8 out of 12
Pollen 3.10 out of 12
Air Quality Not available.
Flu Activity Not available.
SPECI KFMY 012013Z 27010KT 10SM FEW035 32/24 A3003 RMK AO2 LTG DSNT SE T03220239
Pressure 30.03 in
Visibility 10.0 miles
Clouds Few 3500 ft
Heat Index 101 °F
Dew Point 79 °F
Humidity 76%
Rainfall 0.00 in
Snow Depth Not available.
UV 8 out of 12
Pollen 3.10 out of 12
Air Quality Not available.
Flu Activity Not available.
SPECI KFMY 012013Z 27010KT 10SM FEW035 32/24 A3003 RMK AO2 LTG DSNT SE T03220239

10-Day Weather Forecast

×

Almanac

Astronomy

Sep. 01, 2015 Rise Set
Actual Time
Civil Twilight
Nautical Twilight
Astronomical Twilight
Moon
Length of Visible Light
Length of Day
Tomorrow will be .
, % of the Moon is Illuminated

Today's Extremes

State Highs State Lows

Community

WunderPhotos

Upload Photos

1,851,605 photos uploaded!

WunderBlogs® & News

Nearby

Air Quality

  Air Quality AQ Index Pollutant
Not available.

Snow Depth

Station Depth Elevation

Earthquake Activity

City Distance Mag. Time & Date
Minimum magnitude displayed is 2.5.

Coastal Water Temperatures

Place Temperature

Stations

Nearby Weather Stations

Station Location Temp. Windchill Dew Point Humidity Wind Precip. Elev Updated Type